Terminal Aerodrome Forecast
Issued by NWS Cheyenne, WY

Home | Current Version | Previous Version | Text Only | Print | Product List | Glossary On
Versions: 1 2 3 4 5 6 7 8 9 10 11 12 13 14 15 16 17 18 19
000
FTUS45 KCYS 240848 AAB
TAFCYS
TAF AMD
KCYS 240848Z 2409/2506 36022G34KT P6SM VCSH OVC008
      TEMPO 2409/2411 2SM -SN OVC005
     FM241500 35025G39KT P6SM BKN050
     FM241700 35023G35KT P6SM BKN080
     FM241900 35021G32KT P6SM SCT110=

USA.gov is the U.S. government's official web portal to all federal, state and local government web resources and services.